createdAt,value
2023-02-11T00:00:54.315Z,6.32
2023-02-11T00:06:00.717Z,6.55
2023-02-11T00:11:02.252Z,6.70
2023-02-11T00:16:11.488Z,7.60
2023-02-11T00:21:18.574Z,7.32
2023-02-11T00:26:25.792Z,7.07
2023-02-11T00:31:27.991Z,7.22
2023-02-11T00:36:30.173Z,6.45
2023-02-11T00:41:31.605Z,6.55
2023-02-11T00:46:33.257Z,7.03
2023-02-11T00:51:34.762Z,7.82
2023-02-11T00:56:36.236Z,6.90
2023-02-11T01:01:37.747Z,6.95
2023-02-11T01:06:39.316Z,6.32
2023-02-11T01:11:40.828Z,6.80
2023-02-11T01:16:43.073Z,8.50
2023-02-11T01:21:44.616Z,7.93
2023-02-11T01:26:46.112Z,7.55
2023-02-11T01:31:47.691Z,9.25
2023-02-11T01:36:49.128Z,8.85
2023-02-11T01:41:50.698Z,7.10
2023-02-11T01:46:52.848Z,6.90
2023-02-11T01:52:12.539Z,5.47
2023-02-11T01:57:17.240Z,6.78
2023-02-11T02:02:23.252Z,6.85
2023-02-11T02:07:41.196Z,5.88
2023-02-11T02:12:42.861Z,6.38
2023-02-11T02:17:57.335Z,6.88
2023-02-11T02:23:24.895Z,7.07
2023-02-11T02:28:59.055Z,6.28
2023-02-11T02:34:06.942Z,7.45
2023-02-11T02:39:15.563Z,6.60
2023-02-11T02:44:18.895Z,6.53
2023-02-11T02:49:20.357Z,7.68
2023-02-11T02:54:40.461Z,7.55
2023-02-11T02:59:47.689Z,6.40
2023-02-11T03:05:14.525Z,7.13
2023-02-11T03:10:19.104Z,7.05
2023-02-11T03:15:24.488Z,5.75
2023-02-11T03:20:28.703Z,6.20
2023-02-11T03:25:36.948Z,8.23
2023-02-11T03:30:50.242Z,7.55
2023-02-11T03:36:00.468Z,6.90
2023-02-11T03:41:05.747Z,6.75
2023-02-11T03:46:09.667Z,6.53
2023-02-11T03:51:14.193Z,6.13
2023-02-11T03:56:20.730Z,7.10
2023-02-11T04:01:22.463Z,6.93
2023-02-11T04:06:24.074Z,7.43
2023-02-11T04:11:25.685Z,7.60
2023-02-11T04:16:27.371Z,7.22
2023-02-11T04:21:29.023Z,7.25
2023-02-11T04:26:30.627Z,6.32
2023-02-11T04:31:32.149Z,6.57
2023-02-11T04:36:33.627Z,7.60
2023-02-11T04:41:35.227Z,5.75
2023-02-11T04:46:36.765Z,6.95
2023-02-11T04:51:38.450Z,6.93
2023-02-11T04:56:39.984Z,8.82
2023-02-11T05:01:41.786Z,7.75
2023-02-11T05:06:43.342Z,8.98
2023-02-11T05:11:44.939Z,7.93
2023-02-11T05:16:46.542Z,9.77
2023-02-11T05:22:01.658Z,8.93
2023-02-11T05:27:04.019Z,9.07
2023-02-11T05:32:05.440Z,9.23
2023-02-11T05:37:06.908Z,6.85
2023-02-11T05:42:08.624Z,7.65
2023-02-11T05:47:10.162Z,8.43
2023-02-11T05:52:11.591Z,7.75
2023-02-11T05:57:13.674Z,9.15
2023-02-11T06:02:15.148Z,9.48
2023-02-11T06:07:16.636Z,9.10
2023-02-11T06:12:18.372Z,9.57
2023-02-11T06:17:19.906Z,9.07
2023-02-11T06:22:21.496Z,8.52
2023-02-11T06:27:23.192Z,8.75
2023-02-11T06:32:42.733Z,9.27
2023-02-11T06:37:45.159Z,8.20
2023-02-11T06:42:46.676Z,8.98
2023-02-11T06:47:48.114Z,8.73
2023-02-11T06:52:49.573Z,9.48
2023-02-11T06:57:51.119Z,8.95
2023-02-11T07:02:52.559Z,9.23
2023-02-11T07:07:54.125Z,8.35
2023-02-11T07:12:57.782Z,8.85
2023-02-11T07:18:00.291Z,7.70
2023-02-11T07:23:01.760Z,8.90
2023-02-11T07:28:04.008Z,8.15
2023-02-11T07:33:05.582Z,7.45
2023-02-11T07:38:07.060Z,9.02
2023-02-11T07:43:08.453Z,9.20
2023-02-11T07:48:09.901Z,9.45
2023-02-11T07:53:11.409Z,9.38
2023-02-11T07:58:12.959Z,8.80
2023-02-11T08:03:14.432Z,8.57
2023-02-11T08:08:15.916Z,9.70
2023-02-11T08:13:17.338Z,9.52
2023-02-11T08:18:18.758Z,9.45
2023-02-11T08:23:20.289Z,10.13
2023-02-11T08:28:21.783Z,9.35
2023-02-11T08:33:23.325Z,7.63
2023-02-11T08:38:24.788Z,8.23
2023-02-11T08:43:26.274Z,10.00
2023-02-11T08:48:27.750Z,8.57
2023-02-11T08:53:29.266Z,7.88
2023-02-11T08:58:30.824Z,10.57
2023-02-11T09:03:32.281Z,8.57
2023-02-11T09:08:35.492Z,8.82
2023-02-11T09:13:37.452Z,8.63
2023-02-11T09:18:38.881Z,7.07
2023-02-11T09:23:40.446Z,7.97
2023-02-11T09:28:41.964Z,7.25
2023-02-11T09:33:45.488Z,7.63
2023-02-11T09:38:48.460Z,7.50
2023-02-11T09:44:02.033Z,7.80
2023-02-11T09:49:05.461Z,7.45
2023-02-11T09:54:46.521Z,7.15
2023-02-11T09:59:48.019Z,6.95
2023-02-11T10:05:32.028Z,5.70
2023-02-11T10:10:44.460Z,6.63
2023-02-11T10:16:01.609Z,5.55
2023-02-11T10:21:14.911Z,6.57
2023-02-11T10:26:18.960Z,5.70
2023-02-11T10:31:35.880Z,6.13
2023-02-11T10:36:40.172Z,6.15
2023-02-11T10:42:08.669Z,6.47
2023-02-11T10:47:22.253Z,6.32
2023-02-11T10:52:26.239Z,5.80
2023-02-11T10:57:32.938Z,5.40
2023-02-11T11:02:36.706Z,5.32
2023-02-11T11:07:38.410Z,4.97
2023-02-11T11:12:45.607Z,4.75
2023-02-11T11:17:49.177Z,5.15
2023-02-11T11:22:54.172Z,3.58
2023-02-11T11:28:02.527Z,2.97
2023-02-11T11:33:04.724Z,4.45
2023-02-11T11:38:06.457Z,3.05
2023-02-11T11:43:13.684Z,3.33
2023-02-11T11:48:22.176Z,4.28
2023-02-11T11:53:49.571Z,3.47
2023-02-11T11:58:51.415Z,2.80
2023-02-11T12:03:55.537Z,3.85
2023-02-11T12:09:29.537Z,3.45
2023-02-11T12:14:49.957Z,4.07
2023-02-11T12:20:13.479Z,4.00
2023-02-11T12:25:27.886Z,4.60
2023-02-11T12:31:02.397Z,3.75
2023-02-11T12:36:13.119Z,4.10
2023-02-11T12:41:41.589Z,3.83
2023-02-11T12:47:26.297Z,3.45
2023-02-11T12:52:47.845Z,3.63
2023-02-11T12:57:53.016Z,4.82
2023-02-11T13:03:09.620Z,4.47
2023-02-11T13:08:28.731Z,3.15
2023-02-11T13:13:48.938Z,4.30
2023-02-11T13:19:27.874Z,5.70
2023-02-11T13:25:01.558Z,5.45
2023-02-11T13:30:29.352Z,4.07
2023-02-11T13:35:39.898Z,3.75
2023-02-11T13:40:41.558Z,4.78
2023-02-11T13:45:45.590Z,4.03
2023-02-11T13:50:50.952Z,4.00
2023-02-11T13:56:05.121Z,3.97
2023-02-11T14:01:07.307Z,4.75
2023-02-11T14:06:08.991Z,3.75
2023-02-11T14:11:32.299Z,4.30
2023-02-11T14:16:38.266Z,4.18
2023-02-11T14:21:42.891Z,4.68
2023-02-11T14:26:52.635Z,4.32
2023-02-11T14:32:32.591Z,4.80
2023-02-11T14:37:49.180Z,4.40
2023-02-11T14:42:54.237Z,4.47
2023-02-11T14:48:02.096Z,4.75
2023-02-11T14:53:04.427Z,4.93
2023-02-11T14:58:16.585Z,4.63
2023-02-11T15:03:45.170Z,4.57
2023-02-11T15:08:53.536Z,4.55
2023-02-11T15:13:56.878Z,4.93
2023-02-11T15:19:02.721Z,4.63
2023-02-11T15:24:23.341Z,4.57
2023-02-11T15:29:26.796Z,5.45
2023-02-11T15:34:28.446Z,5.25
2023-02-11T15:39:32.896Z,2.85
2023-02-11T15:44:34.373Z,4.70
2023-02-11T15:49:35.958Z,4.65
2023-02-11T15:54:37.805Z,4.15
2023-02-11T15:59:45.864Z,4.65
2023-02-11T16:04:56.353Z,4.55
2023-02-11T16:09:58.658Z,4.78
2023-02-11T16:15:30.331Z,3.67
2023-02-11T16:20:31.924Z,5.22
2023-02-11T16:25:35.482Z,5.60
2023-02-11T16:30:39.390Z,5.25
2023-02-11T16:35:40.991Z,5.07
2023-02-11T16:40:42.822Z,4.32
2023-02-11T16:45:44.347Z,5.13
2023-02-11T16:50:51.483Z,5.63
2023-02-11T16:55:54.805Z,5.28
2023-02-11T17:00:56.602Z,5.35
2023-02-11T17:05:58.105Z,5.28
2023-02-11T17:10:59.753Z,5.85
2023-02-11T17:16:01.199Z,6.57
2023-02-11T17:21:06.651Z,5.85
2023-02-11T17:26:09.102Z,5.13
2023-02-11T17:31:10.606Z,5.15
2023-02-11T17:36:12.194Z,4.97
2023-02-11T17:41:13.680Z,5.20
2023-02-11T17:46:15.267Z,3.63
2023-02-11T17:51:27.255Z,4.50
2023-02-11T17:56:29.566Z,4.75
2023-02-11T18:01:33.259Z,7.55
2023-02-11T18:06:35.142Z,6.60
2023-02-11T18:11:38.875Z,4.45
2023-02-11T18:16:40.453Z,4.47
2023-02-11T18:21:42.036Z,5.20
2023-02-11T18:26:43.817Z,4.78
2023-02-11T18:31:45.448Z,4.82
2023-02-11T18:36:46.895Z,5.32
2023-02-11T18:41:48.402Z,3.88
2023-02-11T18:46:50.330Z,5.75
2023-02-11T18:51:52.029Z,5.90
2023-02-11T18:56:53.655Z,6.20
2023-02-11T19:01:55.163Z,5.10
2023-02-11T19:06:56.620Z,5.70
2023-02-11T19:11:58.136Z,5.28
2023-02-11T19:17:03.258Z,5.70
2023-02-11T19:22:05.052Z,6.50
2023-02-11T19:27:06.505Z,7.22
2023-02-11T19:32:08.255Z,5.18
2023-02-11T19:37:11.339Z,5.93
2023-02-11T19:42:13.442Z,6.22
2023-02-11T19:47:15.013Z,5.75
2023-02-11T19:52:16.455Z,6.07
2023-02-11T19:57:18.150Z,7.32
2023-02-11T20:02:19.817Z,6.95
2023-02-11T20:07:21.402Z,5.30
2023-02-11T20:12:22.960Z,5.45
2023-02-11T20:17:24.541Z,5.40
2023-02-11T20:22:26.119Z,3.65
2023-02-11T20:27:27.563Z,4.47
2023-02-11T20:32:31.144Z,3.75
2023-02-11T20:37:34.411Z,3.57
2023-02-11T20:42:36.088Z,4.75
2023-02-11T20:47:38.210Z,4.53
2023-02-11T20:52:39.877Z,3.58
2023-02-11T20:57:41.460Z,4.72
2023-02-11T21:02:43.042Z,3.88
2023-02-11T21:07:44.896Z,4.95
2023-02-11T21:12:49.543Z,6.05
2023-02-11T21:17:51.471Z,5.40
2023-02-11T21:22:53.014Z,4.90
2023-02-11T21:27:54.589Z,5.65
2023-02-11T21:32:58.286Z,5.55
2023-02-11T21:37:59.820Z,4.72
2023-02-11T21:43:01.302Z,6.35
2023-02-11T21:48:02.790Z,5.55
2023-02-11T21:53:06.940Z,5.88
2023-02-11T21:58:09.103Z,4.60
2023-02-11T22:03:11.922Z,4.93
2023-02-11T22:08:13.430Z,6.07
2023-02-11T22:13:14.834Z,5.82
2023-02-11T22:18:16.318Z,6.03
2023-02-11T22:23:17.797Z,5.95
2023-02-11T22:28:19.213Z,5.38
2023-02-11T22:33:21.806Z,5.97
2023-02-11T22:38:23.357Z,5.85
2023-02-11T22:43:25.300Z,5.78
2023-02-11T22:48:26.892Z,5.55
2023-02-11T22:53:28.405Z,5.60
2023-02-11T22:58:29.846Z,6.50
2023-02-11T23:03:32.299Z,5.45
2023-02-11T23:08:34.334Z,4.63
2023-02-11T23:13:37.778Z,4.78
2023-02-11T23:18:42.449Z,5.15
2023-02-11T23:23:46.285Z,4.05
2023-02-11T23:28:47.834Z,3.70
2023-02-11T23:33:49.538Z,5.30
2023-02-11T23:38:51.169Z,4.60
2023-02-11T23:43:57.367Z,4.80
2023-02-11T23:48:58.982Z,4.53
2023-02-11T23:54:01.234Z,3.40
2023-02-11T23:59:02.808Z,3.65
